createdAt,value
2018-06-29T00:00:13.148Z,65.73
2018-06-29T00:03:16.356Z,66.02
2018-06-29T00:06:19.554Z,65.03
2018-06-29T00:09:23.362Z,64.82
2018-06-29T00:12:26.548Z,65.39
2018-06-29T00:15:29.643Z,65.40
2018-06-29T00:18:32.918Z,65.88
2018-06-29T00:21:36.139Z,65.46
2018-06-29T00:24:42.005Z,66.44
2018-06-29T00:27:45.193Z,65.97
2018-06-29T00:30:50.478Z,66.30
2018-06-29T00:33:53.882Z,66.66
2018-06-29T00:36:57.818Z,67.36
2018-06-29T00:40:03.290Z,66.26
2018-06-29T00:43:06.398Z,66.14
2018-06-29T00:46:09.480Z,65.60
2018-06-29T00:49:12.576Z,65.33
2018-06-29T00:52:15.725Z,64.51
2018-06-29T00:55:18.863Z,64.47
2018-06-29T00:58:21.847Z,64.16
2018-06-29T01:01:25.047Z,63.08
2018-06-29T01:04:31.746Z,62.84
2018-06-29T01:07:34.993Z,63.28
2018-06-29T01:10:38.046Z,63.52
2018-06-29T01:13:41.185Z,63.13
2018-06-29T01:16:44.235Z,63.75
2018-06-29T01:19:47.409Z,63.95
2018-06-29T01:22:51.626Z,64.75
2018-06-29T01:25:55.718Z,64.88
2018-06-29T01:28:58.725Z,64.85
2018-06-29T01:32:01.920Z,65.09
2018-06-29T01:35:05.157Z,65.15
2018-06-29T01:38:08.236Z,66.05
2018-06-29T01:41:11.612Z,66.23
2018-06-29T01:44:15.632Z,67.17
2018-06-29T01:47:18.869Z,67.61
2018-06-29T01:50:22.220Z,68.23
2018-06-29T01:53:33.155Z,68.50
2018-06-29T01:56:36.619Z,68.97
2018-06-29T01:59:39.909Z,70.44
2018-06-29T02:02:43.098Z,71.88
2018-06-29T02:05:46.213Z,71.99
2018-06-29T02:08:54.695Z,72.94
2018-06-29T02:11:58.882Z,74.17
2018-06-29T02:15:02.008Z,75.33
2018-06-29T02:18:13.277Z,75.93
2018-06-29T02:21:17.490Z,75.37
2018-06-29T02:24:20.809Z,75.14
2018-06-29T02:27:24.732Z,75.24
2018-06-29T02:30:28.066Z,75.79
2018-06-29T02:33:31.301Z,74.59
2018-06-29T02:36:34.599Z,75.40
2018-06-29T02:39:37.867Z,75.80
2018-06-29T02:42:41.272Z,76.52
2018-06-29T02:45:44.474Z,76.31
2018-06-29T02:48:47.785Z,76.05
2018-06-29T02:51:51.026Z,77.29
2018-06-29T02:54:54.214Z,77.49
2018-06-29T02:57:57.510Z,77.54
2018-06-29T03:01:00.689Z,79.12
2018-06-29T03:04:04.046Z,78.33
2018-06-29T03:07:07.466Z,78.71
2018-06-29T03:10:19.086Z,78.55
2018-06-29T03:13:23.447Z,78.66
2018-06-29T03:16:26.630Z,77.46
2018-06-29T03:19:30.975Z,76.84
2018-06-29T03:22:34.248Z,75.41
2018-06-29T03:25:37.353Z,72.82
2018-06-29T03:28:40.542Z,70.50
2018-06-29T03:31:44.879Z,69.32
2018-06-29T03:34:48.081Z,68.99
2018-06-29T03:37:51.323Z,70.36
2018-06-29T03:40:54.453Z,70.32
2018-06-29T03:43:57.690Z,69.92
2018-06-29T03:47:01.018Z,70.33
2018-06-29T03:50:04.493Z,70.64
2018-06-29T03:53:07.895Z,70.81
2018-06-29T03:56:11.042Z,71.06
2018-06-29T03:59:14.276Z,70.88
2018-06-29T04:02:17.414Z,71.01
2018-06-29T04:05:20.588Z,70.38
2018-06-29T04:08:23.646Z,70.23
2018-06-29T04:11:26.738Z,67.90
2018-06-29T04:14:29.945Z,67.18
2018-06-29T04:17:33.088Z,68.95
2018-06-29T04:20:36.336Z,67.53
2018-06-29T04:23:39.569Z,63.00
2018-06-29T04:26:42.747Z,62.12
2018-06-29T04:29:45.852Z,61.17
2018-06-29T04:32:49.043Z,62.24
2018-06-29T04:35:52.100Z,61.53
2018-06-29T04:38:55.295Z,60.11
2018-06-29T04:41:58.393Z,62.56
2018-06-29T04:45:01.567Z,63.61
2018-06-29T04:48:04.814Z,65.14
2018-06-29T04:51:07.901Z,68.14
2018-06-29T04:54:11.196Z,69.54
2018-06-29T04:57:14.423Z,70.45
2018-06-29T05:00:17.597Z,70.81
2018-06-29T05:03:20.721Z,70.48
2018-06-29T05:06:23.794Z,69.94
2018-06-29T05:09:27.092Z,69.69
2018-06-29T05:12:31.427Z,68.58
2018-06-29T05:15:34.634Z,66.21
2018-06-29T05:18:37.810Z,64.75
2018-06-29T05:21:40.931Z,63.89
2018-06-29T05:24:44.018Z,62.27
2018-06-29T05:27:47.202Z,60.40
2018-06-29T05:30:50.722Z,53.85
2018-06-29T05:33:54.004Z,51.27
2018-06-29T05:36:57.164Z,43.00
2018-06-29T05:40:00.450Z,35.30
2018-06-29T05:43:03.727Z,33.78
2018-06-29T05:46:06.904Z,29.89
2018-06-29T05:49:10.113Z,29.31
2018-06-29T05:52:13.321Z,30.32
2018-06-29T05:55:18.492Z,27.49
2018-06-29T05:58:21.680Z,27.89
2018-06-29T06:01:25.094Z,29.63
2018-06-29T06:04:29.606Z,32.22
2018-06-29T06:07:32.776Z,34.94
2018-06-29T06:10:39.953Z,39.70
2018-06-29T06:13:51.237Z,35.58
2018-06-29T06:16:58.213Z,33.15
2018-06-29T06:20:11.571Z,30.50
2018-06-29T06:23:19.300Z,29.43
2018-06-29T06:26:22.563Z,30.50
2018-06-29T06:29:26.986Z,28.37
2018-06-29T06:32:31.352Z,31.13
2018-06-29T06:35:34.624Z,29.90
2018-06-29T06:38:37.803Z,27.74
2018-06-29T06:41:41.834Z,28.68
2018-06-29T06:44:45.232Z,27.49
2018-06-29T06:47:51.557Z,27.31
2018-06-29T06:50:54.902Z,27.43
2018-06-29T06:53:58.139Z,29.00
2018-06-29T06:57:01.483Z,29.32
2018-06-29T07:00:05.654Z,28.48
2018-06-29T07:03:08.840Z,29.23
2018-06-29T07:06:12.019Z,30.82
2018-06-29T07:09:16.085Z,35.92
2018-06-29T07:12:19.483Z,38.40
2018-06-29T07:15:22.737Z,40.79
2018-06-29T07:18:26.941Z,41.63
2018-06-29T07:21:32.590Z,43.34
2018-06-29T07:24:35.768Z,45.59
2018-06-29T07:27:38.864Z,44.47
2018-06-29T07:30:42.033Z,45.52
2018-06-29T07:33:45.177Z,41.01
2018-06-29T07:36:48.277Z,37.32
2018-06-29T07:39:51.466Z,33.72
2018-06-29T07:42:54.505Z,33.35
2018-06-29T07:45:57.663Z,31.91
2018-06-29T07:49:00.857Z,31.93
2018-06-29T07:52:04.064Z,33.75
2018-06-29T07:55:07.398Z,37.61
2018-06-29T07:58:10.607Z,36.30
2018-06-29T08:01:13.705Z,34.85
2018-06-29T08:04:17.023Z,34.94
2018-06-29T08:07:20.362Z,35.98
2018-06-29T08:10:23.567Z,36.32
2018-06-29T08:13:27.353Z,36.99
2018-06-29T08:16:30.478Z,36.10
2018-06-29T08:19:33.586Z,34.28
2018-06-29T08:22:36.808Z,35.90
2018-06-29T08:25:40.020Z,36.55
2018-06-29T08:28:43.145Z,38.84
2018-06-29T08:31:49.333Z,36.71
2018-06-29T08:34:52.462Z,37.40
2018-06-29T08:37:55.664Z,36.38
2018-06-29T08:40:58.812Z,38.31
2018-06-29T08:44:02.058Z,37.07
2018-06-29T08:47:05.242Z,35.12
2018-06-29T08:50:08.513Z,35.58
2018-06-29T08:53:11.753Z,32.94
2018-06-29T08:56:14.780Z,32.29
2018-06-29T08:59:18.532Z,29.97
2018-06-29T09:02:21.696Z,31.16
2018-06-29T09:05:24.851Z,30.91
2018-06-29T09:08:27.925Z,30.82
2018-06-29T09:11:31.163Z,29.92
2018-06-29T09:14:34.215Z,31.37
2018-06-29T09:17:37.371Z,31.07
2018-06-29T09:20:53.087Z,30.37
2018-06-29T09:23:56.488Z,30.59
2018-06-29T09:26:59.493Z,29.15
2018-06-29T09:30:02.684Z,30.36
2018-06-29T09:33:06.799Z,30.38
2018-06-29T09:36:11.017Z,29.45
2018-06-29T09:39:14.035Z,31.06
2018-06-29T09:42:17.336Z,32.11
2018-06-29T09:45:21.621Z,30.43
2018-06-29T09:48:24.691Z,30.67
2018-06-29T09:51:31.657Z,28.93
2018-06-29T09:54:34.873Z,29.05
2018-06-29T09:57:38.195Z,28.85
2018-06-29T10:00:41.366Z,27.62
2018-06-29T10:03:44.752Z,28.78
2018-06-29T10:06:47.908Z,29.04
2018-06-29T10:09:51.055Z,29.15
2018-06-29T10:12:54.111Z,28.29
2018-06-29T10:15:57.191Z,28.13
2018-06-29T10:19:01.031Z,29.03
2018-06-29T10:22:04.317Z,29.68
2018-06-29T10:25:07.503Z,30.65
2018-06-29T10:28:10.592Z,31.73
2018-06-29T10:31:13.617Z,30.39
2018-06-29T10:34:16.637Z,30.60
2018-06-29T10:37:19.706Z,30.58
2018-06-29T10:40:22.825Z,31.28
2018-06-29T10:43:25.997Z,31.63
2018-06-29T10:46:29.010Z,31.57
2018-06-29T10:49:32.202Z,32.38
2018-06-29T10:52:36.299Z,32.18
2018-06-29T10:55:39.468Z,31.97
2018-06-29T10:58:42.652Z,30.67
2018-06-29T11:01:45.897Z,30.26
2018-06-29T11:04:49.115Z,28.94
2018-06-29T11:07:52.316Z,31.05
2018-06-29T11:10:56.577Z,31.27
2018-06-29T11:13:59.739Z,32.69
2018-06-29T11:17:02.846Z,30.70
2018-06-29T11:20:05.944Z,31.08
2018-06-29T11:23:09.293Z,31.09
2018-06-29T11:26:12.349Z,30.33
2018-06-29T11:29:15.658Z,31.36
2018-06-29T11:32:18.775Z,30.74
2018-06-29T11:35:22.171Z,31.43
2018-06-29T11:38:25.358Z,32.28
2018-06-29T11:41:28.692Z,31.05
2018-06-29T11:44:37.568Z,29.61
2018-06-29T11:47:40.819Z,29.97
2018-06-29T11:50:45.133Z,29.32
2018-06-29T11:53:49.105Z,30.49
2018-06-29T11:56:52.312Z,30.42
2018-06-29T11:59:55.555Z,29.75
2018-06-29T12:02:58.714Z,28.92
2018-06-29T12:06:01.959Z,28.42
2018-06-29T12:09:08.312Z,27.48
2018-06-29T12:12:12.495Z,27.18
2018-06-29T12:15:15.794Z,26.71
2018-06-29T12:18:19.128Z,27.14
2018-06-29T12:21:26.093Z,27.70
2018-06-29T12:24:30.828Z,28.26
2018-06-29T12:27:34.014Z,29.13
2018-06-29T12:30:37.155Z,29.90
2018-06-29T12:33:40.248Z,28.65
2018-06-29T12:36:43.647Z,27.62
2018-06-29T12:39:47.022Z,28.40
2018-06-29T12:42:50.175Z,27.13
2018-06-29T12:45:53.516Z,26.61
2018-06-29T12:48:56.683Z,27.62
2018-06-29T12:51:59.982Z,27.88
2018-06-29T12:55:03.173Z,27.33
2018-06-29T12:58:06.383Z,28.61
2018-06-29T13:01:09.809Z,27.98
2018-06-29T13:04:12.884Z,26.93
2018-06-29T13:07:16.222Z,26.00
2018-06-29T13:10:19.448Z,26.70
2018-06-29T13:13:22.660Z,27.29
2018-06-29T13:16:25.727Z,27.15
2018-06-29T13:19:28.856Z,27.70
2018-06-29T13:22:32.125Z,25.57
2018-06-29T13:25:35.241Z,26.54
2018-06-29T13:28:38.426Z,25.99
2018-06-29T13:31:46.872Z,25.92
2018-06-29T13:35:02.685Z,25.62
2018-06-29T13:38:06.130Z,23.47
2018-06-29T13:41:22.507Z,24.10
2018-06-29T13:44:25.733Z,24.49
2018-06-29T13:47:28.907Z,23.77
2018-06-29T13:50:32.952Z,24.72
2018-06-29T13:53:36.117Z,23.46
2018-06-29T13:56:39.313Z,23.90
2018-06-29T13:59:42.429Z,23.60
2018-06-29T14:02:46.650Z,23.49
2018-06-29T14:05:49.753Z,23.78
2018-06-29T14:08:53.323Z,24.23
2018-06-29T14:11:58.648Z,24.07
2018-06-29T14:15:02.430Z,23.40
2018-06-29T14:18:05.950Z,23.02
2018-06-29T14:21:09.116Z,22.80
2018-06-29T14:24:12.222Z,22.91
2018-06-29T14:27:15.395Z,21.83
2018-06-29T14:30:18.632Z,21.98
2018-06-29T14:33:21.964Z,22.96
2018-06-29T14:36:26.054Z,23.84
2018-06-29T14:39:29.194Z,23.38
2018-06-29T14:42:32.423Z,22.68
2018-06-29T14:45:35.538Z,22.67
2018-06-29T14:48:38.770Z,24.02
2018-06-29T14:51:42.430Z,22.47
2018-06-29T14:54:45.834Z,21.12
2018-06-29T14:57:48.855Z,20.29
2018-06-29T15:00:52.228Z,21.24
2018-06-29T15:03:55.406Z,21.49
2018-06-29T15:06:58.607Z,22.91
2018-06-29T15:10:01.782Z,22.88
2018-06-29T15:13:05.733Z,23.00
2018-06-29T15:16:08.899Z,23.11
2018-06-29T15:19:12.394Z,20.83
2018-06-29T15:22:15.667Z,21.98
2018-06-29T15:25:18.839Z,22.51
2018-06-29T15:28:22.198Z,22.24
2018-06-29T15:31:27.260Z,22.05
2018-06-29T15:34:30.744Z,22.01
2018-06-29T15:37:34.270Z,20.59
2018-06-29T15:40:37.646Z,20.69
2018-06-29T15:43:44.514Z,17.65
2018-06-29T15:46:47.815Z,18.63
2018-06-29T15:49:50.911Z,18.61
2018-06-29T15:52:56.074Z,18.63
2018-06-29T15:56:01.334Z,18.88
2018-06-29T15:59:05.410Z,18.87
2018-06-29T16:02:08.574Z,18.91
2018-06-29T16:05:12.014Z,18.14
2018-06-29T16:08:15.381Z,18.55
2018-06-29T16:11:27.479Z,17.91
2018-06-29T16:14:35.237Z,18.22
2018-06-29T16:17:39.459Z,18.37
2018-06-29T16:20:42.744Z,17.92
2018-06-29T16:23:47.172Z,16.89
2018-06-29T16:26:53.252Z,17.77
2018-06-29T16:29:56.947Z,20.44
2018-06-29T16:33:00.156Z,19.00
2018-06-29T16:36:03.265Z,19.52
2018-06-29T16:39:10.551Z,20.44
2018-06-29T16:42:36.683Z,20.11
2018-06-29T16:45:40.252Z,20.08
2018-06-29T16:48:44.982Z,19.47
2018-06-29T16:51:48.657Z,19.40
2018-06-29T16:54:51.870Z,18.86
2018-06-29T16:57:56.757Z,17.60
2018-06-29T17:01:08.779Z,18.55
2018-06-29T17:04:13.189Z,17.81
2018-06-29T17:07:16.718Z,17.42
2018-06-29T17:10:28.565Z,16.48
2018-06-29T17:13:35.396Z,16.94
2018-06-29T17:16:38.767Z,16.87
2018-06-29T17:19:43.447Z,17.30
2018-06-29T17:22:47.200Z,17.25
2018-06-29T17:25:50.653Z,17.82
2018-06-29T17:28:54.180Z,18.30
2018-06-29T17:31:57.909Z,18.97
2018-06-29T17:35:18.210Z,19.47
2018-06-29T17:38:21.584Z,20.52
2018-06-29T17:41:30.324Z,20.73
2018-06-29T17:44:34.697Z,20.73
2018-06-29T17:47:38.132Z,21.43
2018-06-29T17:50:41.301Z,21.66
2018-06-29T17:53:44.519Z,20.46
2018-06-29T17:56:47.640Z,21.33
2018-06-29T17:59:52.033Z,21.87
2018-06-29T18:02:58.407Z,22.55
2018-06-29T18:06:01.555Z,22.50
2018-06-29T18:09:07.894Z,23.85
2018-06-29T18:12:11.286Z,23.89
2018-06-29T18:15:14.449Z,24.37
2018-06-29T18:18:17.558Z,24.02
2018-06-29T18:21:22.249Z,25.00
2018-06-29T18:24:25.396Z,25.07
2018-06-29T18:27:30.632Z,25.79
2018-06-29T18:30:34.751Z,25.36
2018-06-29T18:33:38.940Z,25.72
2018-06-29T18:36:44.163Z,26.59
2018-06-29T18:39:47.386Z,27.72
2018-06-29T18:42:50.586Z,28.02
2018-06-29T18:45:53.904Z,29.16
2018-06-29T18:48:57.027Z,29.24
2018-06-29T18:52:01.368Z,30.73
2018-06-29T18:55:04.534Z,31.16
2018-06-29T18:58:07.714Z,33.23
2018-06-29T19:01:21.260Z,34.71
2018-06-29T19:04:24.374Z,35.26
2018-06-29T19:07:27.650Z,36.86
2018-06-29T19:10:31.172Z,37.45
2018-06-29T19:13:34.381Z,39.83
2018-06-29T19:16:37.552Z,40.51
2018-06-29T19:19:40.881Z,42.14
2018-06-29T19:22:46.259Z,43.11
2018-06-29T19:25:50.052Z,45.25
2018-06-29T19:28:54.369Z,46.51
2018-06-29T19:31:58.585Z,48.55
2018-06-29T19:35:01.798Z,49.56
2018-06-29T19:38:05.017Z,51.03
2018-06-29T19:41:08.375Z,52.09
2018-06-29T19:44:12.876Z,52.09
2018-06-29T19:47:16.587Z,53.52
2018-06-29T19:50:20.112Z,54.38
2018-06-29T19:53:23.272Z,55.04
2018-06-29T19:56:26.466Z,55.50
2018-06-29T19:59:29.963Z,56.86
2018-06-29T20:02:33.480Z,57.09
2018-06-29T20:05:36.698Z,57.37
2018-06-29T20:08:39.810Z,56.77
2018-06-29T20:11:43.025Z,56.92
2018-06-29T20:14:46.363Z,57.93
2018-06-29T20:17:50.179Z,57.92
2018-06-29T20:20:53.717Z,58.16
2018-06-29T20:23:56.979Z,58.44
2018-06-29T20:27:00.095Z,59.61
2018-06-29T20:30:03.972Z,59.14
2018-06-29T20:33:07.303Z,59.89
2018-06-29T20:36:10.414Z,61.13
2018-06-29T20:39:13.621Z,61.29
2018-06-29T20:42:16.921Z,62.03
2018-06-29T20:45:20.241Z,65.64
2018-06-29T20:48:23.443Z,70.09
2018-06-29T20:51:26.683Z,69.67
2018-06-29T20:54:30.696Z,68.80
2018-06-29T20:57:33.930Z,69.44
2018-06-29T21:00:37.274Z,69.15
2018-06-29T21:03:40.706Z,70.32
2018-06-29T21:06:44.051Z,69.16
2018-06-29T21:09:47.751Z,68.56
2018-06-29T21:12:51.025Z,68.05
2018-06-29T21:15:54.240Z,68.86
2018-06-29T21:18:58.700Z,69.36
2018-06-29T21:22:02.038Z,69.76
2018-06-29T21:25:05.395Z,69.01
2018-06-29T21:28:09.540Z,68.88
2018-06-29T21:31:12.747Z,69.01
2018-06-29T21:34:28.887Z,69.71
2018-06-29T21:37:33.068Z,70.00
2018-06-29T21:40:36.279Z,70.08
2018-06-29T21:43:40.450Z,71.38
2018-06-29T21:46:45.514Z,69.27
2018-06-29T21:49:48.868Z,68.93
2018-06-29T21:53:04.958Z,69.45
2018-06-29T21:56:08.351Z,69.47
2018-06-29T21:59:13.297Z,69.22
2018-06-29T22:02:18.053Z,70.14
2018-06-29T22:05:21.557Z,69.38
2018-06-29T22:08:26.224Z,69.52
2018-06-29T22:11:32.521Z,70.71
2018-06-29T22:14:37.365Z,70.85
2018-06-29T22:17:41.239Z,71.05
2018-06-29T22:20:45.152Z,73.16
2018-06-29T22:23:49.513Z,73.76
2018-06-29T22:26:55.883Z,74.11
2018-06-29T22:30:04.062Z,74.94
2018-06-29T22:33:08.821Z,73.38
2018-06-29T22:36:12.812Z,72.58
2018-06-29T22:39:16.913Z,72.34
2018-06-29T22:42:21.006Z,72.39
2018-06-29T22:45:25.180Z,72.28
2018-06-29T22:48:29.261Z,71.77
2018-06-29T22:51:41.603Z,71.47
2018-06-29T22:54:46.334Z,71.78
2018-06-29T22:57:50.470Z,71.52
2018-06-29T23:00:56.410Z,71.38
2018-06-29T23:04:00.454Z,72.21
2018-06-29T23:07:03.673Z,73.74
2018-06-29T23:13:17.298Z,79.35
2018-06-29T23:16:23.787Z,78.90
2018-06-29T23:19:48.279Z,79.38
2018-06-29T23:22:51.842Z,77.59
2018-06-29T23:25:55.738Z,75.84
2018-06-29T23:28:59.760Z,74.78
2018-06-29T23:32:02.785Z,74.91
2018-06-29T23:35:06.144Z,74.94
2018-06-29T23:38:09.407Z,74.71
2018-06-29T23:41:12.532Z,75.49
2018-06-29T23:44:29.454Z,75.25
2018-06-29T23:47:32.500Z,74.88
2018-06-29T23:50:35.856Z,75.60
2018-06-29T23:53:39.041Z,76.11
2018-06-29T23:56:43.948Z,76.51
2018-06-29T23:59:47.455Z,77.28
